Time;durP1;ratioP1;P1;durP2;ratioP2;P2;SDS_P1;SDS_P2;PMS_P1;PMS_P2;Temp;Humidity;BMP_temperature;BMP_pressure;BME280_temperature;BME280_humidity;BME280_pressure;Samples;Min_cycle;Max_cycle;Signal;HPM_P1;HPM_P2
2021/09/03 00:00:53;;;;;;;28.45;21.52;;;17.10;99.90;;;;;;5012654;28;20180;-78
2021/09/03 00:03:18;;;;;;;30.38;21.48;;;17.10;99.90;;;;;;5012272;28;20172;-79
2021/09/03 00:05:44;;;;;;;30.08;22.10;;;17.10;99.90;;;;;;5012319;28;20211;-82
2021/09/03 00:08:09;;;;;;;30.38;22.02;;;16.90;99.90;;;;;;5012682;28;20208;-78
2021/09/03 00:10:35;;;;;;;30.27;21.50;;;16.90;99.90;;;;;;5011373;28;20211;-78
2021/09/03 00:13:01;;;;;;;27.27;21.23;;;16.80;99.90;;;;;;5011158;28;20172;-78
2021/09/03 00:15:27;;;;;;;28.02;21.55;;;16.80;99.90;;;;;;5012584;28;20164;-80
2021/09/03 00:17:53;;;;;;;37.15;21.05;;;16.80;99.90;;;;;;5015347;28;20766;-79
2021/09/03 00:20:18;;;;;;;43.67;21.20;;;16.80;99.90;;;;;;5016529;28;20176;-79
2021/09/03 00:22:44;;;;;;;30.02;20.17;;;16.60;99.90;;;;;;5016270;28;20226;-78
2021/09/03 00:25:11;;;;;;;38.38;21.10;;;16.60;99.90;;;;;;5016035;28;20809;-78
2021/09/03 00:27:38;;;;;;;31.40;21.60;;;16.90;99.90;;;;;;5016013;28;20703;-78
2021/09/03 00:30:07;;;;;;;30.30;19.75;;;16.80;99.90;;;;;;5016305;28;20188;-78
2021/09/03 00:32:33;;;;;;;28.70;21.02;;;16.60;99.90;;;;;;5016005;28;20176;-78
2021/09/03 00:34:59;;;;;;;32.70;21.95;;;16.60;99.90;;;;;;5016340;28;20184;-78
2021/09/03 00:37:25;;;;;;;30.35;21.17;;;16.60;99.90;;;;;;5015879;28;20212;-78
2021/09/03 00:39:50;;;;;;;29.45;21.35;;;16.70;99.90;;;;;;5015848;28;20172;-78
2021/09/03 00:42:16;;;;;;;33.30;22.00;;;16.70;99.90;;;;;;5016119;28;20226;-79
2021/09/03 00:44:41;;;;;;;31.77;21.27;;;16.70;99.90;;;;;;5015950;28;20252;-78
2021/09/03 00:47:07;;;;;;;34.28;22.25;;;16.70;99.90;;;;;;5015839;28;20165;-79
2021/09/03 00:49:34;;;;;;;34.35;21.13;;;16.70;99.90;;;;;;5015585;28;20157;-79
2021/09/03 00:52:02;;;;;;;35.65;21.98;;;16.80;99.90;;;;;;5015597;28;20632;-78
2021/09/03 00:54:28;;;;;;;31.55;22.85;;;16.90;99.90;;;;;;5014310;28;20640;-80
2021/09/03 00:56:53;;;;;;;28.38;21.55;;;17.00;99.90;;;;;;5014448;28;20192;-78
2021/09/03 00:59:19;;;;;;;35.78;22.58;;;16.80;99.90;;;;;;5015559;28;20246;-78
2021/09/03 01:01:45;;;;;;;36.45;22.17;;;16.80;99.90;;;;;;5015375;28;20169;-78
2021/09/03 01:04:10;;;;;;;33.20;22.23;;;16.60;99.90;;;;;;5016043;28;20553;-80
2021/09/03 01:06:36;;;;;;;33.05;22.88;;;16.60;99.90;;;;;;5015746;28;20637;-79
2021/09/03 01:09:02;;;;;;;30.33;22.33;;;16.60;99.90;;;;;;5015343;28;20590;-78
2021/09/03 01:11:27;;;;;;;36.97;23.40;;;16.80;99.90;;;;;;5016083;28;20164;-78
2021/09/03 01:13:53;;;;;;;28.48;21.52;;;16.80;99.90;;;;;;5015715;28;20164;-79
2021/09/03 01:16:19;;;;;;;38.42;22.98;;;16.80;99.90;;;;;;5015605;28;20172;-78
2021/09/03 01:18:44;;;;;;;32.33;23.85;;;16.90;99.90;;;;;;5016094;28;20216;-77
2021/09/03 01:21:10;;;;;;;32.05;21.30;;;16.90;99.90;;;;;;5016166;28;20299;-77
2021/09/03 01:23:36;;;;;;;30.95;22.23;;;16.90;99.90;;;;;;5016528;28;20314;-78
2021/09/03 01:26:04;;;;;;;40.35;22.08;;;16.80;99.90;;;;;;5015164;28;20180;-78
2021/09/03 01:28:30;;;;;;;34.13;22.05;;;16.60;99.90;;;;;;5012957;28;20199;-78
2021/09/03 01:30:56;;;;;;;26.65;21.60;;;16.60;99.90;;;;;;5015079;28;20176;-79
2021/09/03 01:33:22;;;;;;;34.63;21.58;;;16.50;99.90;;;;;;5014749;28;20164;-81
2021/09/03 01:35:48;;;;;;;28.23;21.30;;;16.60;99.90;;;;;;5014629;28;20255;-78
2021/09/03 01:38:14;;;;;;;29.20;21.05;;;16.70;99.90;;;;;;5014002;28;20316;-78
2021/09/03 01:40:40;;;;;;;31.90;22.30;;;16.50;99.90;;;;;;5014630;28;20165;-79
2021/09/03 01:43:05;;;;;;;33.55;20.60;;;16.50;99.90;;;;;;5014623;28;20211;-78
2021/09/03 01:45:31;;;;;;;33.88;21.88;;;16.60;99.90;;;;;;5014787;28;20213;-78
2021/09/03 01:47:56;;;;;;;33.78;22.20;;;16.50;99.90;;;;;;5014849;28;20185;-78
2021/09/03 01:50:23;;;;;;;40.75;23.13;;;16.70;99.90;;;;;;5014911;28;20227;-79
2021/09/03 01:52:49;;;;;;;29.98;21.10;;;16.70;99.90;;;;;;5014434;28;20168;-79
2021/09/03 01:55:15;;;;;;;27.95;21.67;;;16.70;99.90;;;;;;5014446;28;20677;-78
2021/09/03 01:57:40;;;;;;;36.33;22.60;;;16.70;99.90;;;;;;5014630;28;20712;-78
2021/09/03 02:00:07;;;;;;;35.70;23.20;;;16.80;99.90;;;;;;5014585;28;20177;-78
2021/09/03 02:02:32;;;;;;;39.05;22.00;;;16.70;99.90;;;;;;5014493;28;20517;-78
2021/09/03 02:04:58;;;;;;;40.63;22.38;;;16.70;99.90;;;;;;5013068;28;20171;-78
2021/09/03 02:07:24;;;;;;;38.30;24.63;;;16.70;99.90;;;;;;5013794;28;20596;-81
2021/09/03 02:09:49;;;;;;;31.45;22.45;;;16.70;99.90;;;;;;5014211;28;20700;-77
2021/09/03 02:12:15;;;;;;;36.60;23.55;;;16.60;99.90;;;;;;5013917;28;20214;-77
2021/09/03 02:14:42;;;;;;;34.33;23.55;;;16.50;99.90;;;;;;5013923;28;20260;-77
2021/09/03 02:17:08;;;;;;;36.50;23.95;;;16.70;99.90;;;;;;5013894;28;20165;-77
2021/09/03 02:19:33;;;;;;;33.85;22.65;;;16.50;99.90;;;;;;5012924;28;20649;-79
2021/09/03 02:21:59;;;;;;;35.55;23.50;;;16.30;99.90;;;;;;5014297;28;20191;-78
2021/09/03 02:24:24;;;;;;;32.70;23.60;;;16.20;99.90;;;;;;5014034;28;20671;-78
2021/09/03 02:26:50;;;;;;;33.50;23.92;;;16.10;99.90;;;;;;5014059;28;20543;-80
2021/09/03 02:29:16;;;;;;;35.60;21.73;;;16.00;99.90;;;;;;5013873;28;20164;-79
2021/09/03 02:31:41;;;;;;;42.83;24.77;;;16.10;99.90;;;;;;5012964;28;20176;-78
2021/09/03 02:34:07;;;;;;;34.22;22.83;;;16.10;99.90;;;;;;5014004;28;20171;-78
2021/09/03 02:36:33;;;;;;;38.75;22.70;;;16.10;99.90;;;;;;5013775;28;20168;-79
2021/09/03 02:38:58;;;;;;;33.78;23.02;;;16.10;99.90;;;;;;5012066;28;20220;-78
2021/09/03 02:41:24;;;;;;;33.28;22.98;;;16.10;99.90;;;;;;5012671;28;20156;-78
2021/09/03 02:43:50;;;;;;;35.97;23.58;;;16.00;99.90;;;;;;5013160;28;20194;-80
2021/09/03 02:46:15;;;;;;;44.67;23.08;;;16.00;99.90;;;;;;5013619;28;20179;-79
2021/09/03 02:48:41;;;;;;;42.45;24.35;;;16.00;99.90;;;;;;5013546;28;20648;-79
2021/09/03 02:51:06;;;;;;;34.65;23.45;;;15.60;99.90;;;;;;5013201;28;20259;-79
2021/09/03 02:53:32;;;;;;;33.53;23.35;;;15.50;99.90;;;;;;5013286;28;20168;-79
2021/09/03 02:55:58;;;;;;;36.58;23.25;;;15.40;99.90;;;;;;5013471;28;20177;-78
2021/09/03 02:58:23;;;;;;;32.92;21.75;;;15.40;99.90;;;;;;5013184;28;20298;-78
2021/09/03 03:00:49;;;;;;;34.67;23.35;;;15.30;99.90;;;;;;5013533;28;20187;-78
2021/09/03 03:03:14;;;;;;;35.75;23.45;;;15.60;99.90;;;;;;5013239;28;20173;-78
2021/09/03 03:05:40;;;;;;;37.72;23.73;;;15.50;99.90;;;;;;5012323;28;20173;-78
2021/09/03 03:08:06;;;;;;;38.55;22.58;;;15.60;99.90;;;;;;5013792;28;20188;-78
2021/09/03 03:10:33;;;;;;;36.40;23.88;;;15.60;99.90;;;;;;5013477;28;20516;-78
2021/09/03 03:12:59;;;;;;;34.97;23.50;;;15.60;99.90;;;;;;5013704;28;20555;-78
2021/09/03 03:15:25;;;;;;;37.95;22.67;;;15.70;99.90;;;;;;5014311;28;20239;-77
2021/09/03 03:17:52;;;;;;;40.35;23.60;;;15.70;99.90;;;;;;5012254;28;20358;-78
2021/09/03 03:20:18;;;;;;;37.00;23.67;;;15.80;99.90;;;;;;5013970;28;20179;-78
2021/09/03 03:22:45;;;;;;;37.63;24.60;;;15.90;99.90;;;;;;5013741;28;20165;-78
2021/09/03 03:25:11;;;;;;;41.92;24.23;;;16.00;99.90;;;;;;5014033;28;20536;-78
2021/09/03 03:27:36;;;;;;;36.72;23.40;;;16.00;99.90;;;;;;5013312;28;20194;-78
2021/09/03 03:30:04;;;;;;;38.20;24.50;;;15.90;99.90;;;;;;5014047;28;20252;-78
2021/09/03 03:32:30;;;;;;;40.42;22.83;;;15.80;99.90;;;;;;5013178;28;20652;-79
2021/09/03 03:34:55;;;;;;;38.67;24.40;;;15.80;99.90;;;;;;5013728;28;20169;-79
2021/09/03 03:37:21;;;;;;;38.30;24.58;;;15.70;99.90;;;;;;5013571;28;20211;-79
2021/09/03 03:39:46;;;;;;;42.35;25.58;;;15.60;99.90;;;;;;5012889;28;20177;-79
2021/09/03 03:42:12;;;;;;;37.53;23.17;;;15.60;99.90;;;;;;5012490;28;20637;-79
2021/09/03 03:44:37;;;;;;;40.70;23.60;;;15.40;99.90;;;;;;5012634;28;20184;-78
2021/09/03 03:47:03;;;;;;;39.95;23.60;;;15.30;99.90;;;;;;5012791;28;20651;-79
2021/09/03 03:49:29;;;;;;;37.83;24.20;;;15.10;99.90;;;;;;5012521;28;20176;-78
2021/09/03 03:51:54;;;;;;;40.78;25.02;;;15.10;99.90;;;;;;5012110;28;20529;-78
2021/09/03 03:54:20;;;;;;;39.35;24.65;;;15.20;99.90;;;;;;5012701;28;20528;-79
2021/09/03 03:56:46;;;;;;;47.22;25.08;;;15.40;99.90;;;;;;5012835;28;20172;-80
2021/09/03 03:59:11;;;;;;;39.05;26.02;;;15.30;99.90;;;;;;5012082;28;20239;-78
2021/09/03 04:01:37;;;;;;;42.65;24.10;;;15.40;99.90;;;;;;5012572;28;20172;-80
2021/09/03 04:04:02;;;;;;;37.80;24.40;;;15.50;99.90;;;;;;5015885;28;20172;-86
2021/09/03 04:06:28;;;;;;;46.60;26.00;;;15.30;99.90;;;;;;5013381;28;20171;-91
2021/09/03 04:08:54;;;;;;;44.47;27.05;;;15.50;99.90;;;;;;5014822;28;20184;-79
2021/09/03 04:11:19;;;;;;;43.60;25.58;;;15.40;99.90;;;;;;5014257;28;20172;-87
2021/09/03 04:13:45;;;;;;;51.75;26.80;;;15.40;99.90;;;;;;5012827;28;20183;-85
2021/09/03 04:16:10;;;;;;;38.53;25.17;;;15.20;99.90;;;;;;5013596;28;20258;-82
2021/09/03 04:18:38;;;;;;;34.53;23.95;;;15.00;99.90;;;;;;5013569;28;20296;-90
2021/09/03 04:21:05;;;;;;;34.85;23.50;;;15.00;99.90;;;;;;5013928;28;20168;-90
2021/09/03 04:23:31;;;;;;;37.85;23.55;;;15.10;99.90;;;;;;5013697;28;20172;-80
2021/09/03 04:25:57;;;;;;;44.35;26.60;;;15.20;99.90;;;;;;5013543;28;20723;-84
2021/09/03 04:28:23;;;;;;;44.20;25.67;;;15.20;99.90;;;;;;5012451;28;20196;-91
2021/09/03 04:30:48;;;;;;;40.92;24.63;;;15.20;99.90;;;;;;5014080;28;20167;-83
2021/09/03 04:33:14;;;;;;;36.90;25.13;;;15.30;99.90;;;;;;5013544;28;20176;-91
2021/09/03 04:35:40;;;;;;;47.75;25.77;;;15.30;99.90;;;;;;5013711;28;20183;-86
2021/09/03 04:38:06;;;;;;;45.08;26.75;;;15.40;99.90;;;;;;5013240;28;20283;-88
2021/09/03 04:40:31;;;;;;;53.65;26.85;;;15.30;99.90;;;;;;5012237;28;20189;-88
2021/09/03 04:42:57;;;;;;;49.28;27.13;;;15.30;99.90;;;;;;5013104;28;20188;-86
2021/09/03 04:45:23;;;;;;;45.22;27.35;;;15.50;99.90;;;;;;5013380;28;20187;-90
2021/09/03 04:47:50;;;;;;;51.95;26.85;;;15.40;99.90;;;;;;5012573;28;20188;-78
2021/09/03 04:50:16;;;;;;;43.72;26.15;;;15.50;99.90;;;;;;5012006;28;20651;-84
2021/09/03 04:52:43;;;;;;;42.17;26.42;;;15.50;99.90;;;;;;5012756;28;20157;-89
2021/09/03 04:55:10;;;;;;;53.08;26.63;;;15.60;99.90;;;;;;5013608;28;20168;-90
2021/09/03 04:57:40;;;;;;;84.35;29.83;;;15.30;99.90;;;;;;5013157;28;20270;-84
2021/09/03 05:00:07;;;;;;;56.00;27.58;;;15.30;99.90;;;;;;5013898;28;20176;-90
2021/09/03 05:02:32;;;;;;;41.63;26.15;;;15.40;99.90;;;;;;5013332;28;20192;-88
2021/09/03 05:04:58;;;;;;;107.60;31.50;;;15.40;99.90;;;;;;5016733;28;20168;-93
2021/09/03 05:07:24;;;;;;;52.03;28.10;;;15.50;99.90;;;;;;5017299;28;20200;-92
2021/09/03 05:09:49;;;;;;;116.82;32.92;;;15.60;99.90;;;;;;5016016;28;20617;-91
2021/09/03 05:12:15;;;;;;;90.95;31.40;;;15.50;99.90;;;;;;5016702;28;20183;-90
2021/09/03 05:14:40;;;;;;;56.95;27.75;;;15.40;99.90;;;;;;5018293;28;20564;-91
2021/09/03 05:17:06;;;;;;;57.80;28.30;;;15.50;99.90;;;;;;5017357;28;20165;-90
2021/09/03 05:19:31;;;;;;;51.13;27.95;;;15.60;99.90;;;;;;5016988;28;20243;-90
2021/09/03 05:21:57;;;;;;;55.70;27.88;;;15.60;99.90;;;;;;5016607;28;20171;-92
2021/09/03 05:24:23;;;;;;;47.25;28.35;;;15.80;99.90;;;;;;5017569;28;20173;-87
2021/09/03 05:26:48;;;;;;;90.57;30.52;;;15.90;99.90;;;;;;5016911;28;20644;-86
2021/09/03 05:29:14;;;;;;;52.67;28.60;;;15.50;99.90;;;;;;5017425;28;20192;-92
2021/09/03 05:31:39;;;;;;;49.72;27.00;;;15.70;99.90;;;;;;5018042;28;20164;-92
2021/09/03 05:34:05;;;;;;;51.20;28.25;;;15.50;99.90;;;;;;5016658;28;20575;-90
2021/09/03 05:36:31;;;;;;;40.95;26.10;;;15.50;99.90;;;;;;5017105;28;20168;-87
2021/09/03 05:38:56;;;;;;;49.88;27.30;;;15.50;99.90;;;;;;5016940;28;20568;-93
2021/09/03 05:41:22;;;;;;;50.05;28.20;;;15.60;99.90;;;;;;5018027;28;20168;-91
2021/09/03 05:43:47;;;;;;;45.17;27.13;;;15.70;99.90;;;;;;5015904;28;20168;-78
2021/09/03 05:46:13;;;;;;;48.28;28.42;;;15.70;99.90;;;;;;5013255;28;20168;-78
2021/09/03 05:48:39;;;;;;;54.05;27.70;;;15.60;99.90;;;;;;5014873;28;20196;-77
2021/09/03 05:51:04;;;;;;;45.10;27.55;;;15.80;99.90;;;;;;5017293;28;20175;-85
2021/09/03 05:53:30;;;;;;;44.45;27.10;;;15.90;99.90;;;;;;5019277;28;20164;-86
2021/09/03 05:55:56;;;;;;;48.10;25.20;;;15.70;99.90;;;;;;5019046;28;20244;-77
2021/09/03 05:58:21;;;;;;;44.63;26.58;;;15.80;99.90;;;;;;5014500;28;20216;-84
2021/09/03 06:00:47;;;;;;;41.25;26.00;;;15.80;99.90;;;;;;5015600;28;20240;-83
2021/09/03 06:03:13;;;;;;;45.30;26.33;;;15.80;99.90;;;;;;5015500;28;20226;-84
2021/09/03 06:05:38;;;;;;;59.78;28.65;;;15.50;99.90;;;;;;5015874;28;20168;-84
2021/09/03 06:08:04;;;;;;;47.25;27.80;;;15.60;99.90;;;;;;5014902;28;20192;-81
2021/09/03 06:10:30;;;;;;;53.03;26.55;;;15.70;99.90;;;;;;5015423;28;20180;-84
2021/09/03 06:12:56;;;;;;;52.78;27.15;;;15.90;99.90;;;;;;5016044;28;20173;-84
2021/09/03 06:15:21;;;;;;;51.65;26.52;;;15.80;99.90;;;;;;5016203;28;20160;-83
2021/09/03 06:17:47;;;;;;;48.00;26.85;;;15.80;99.90;;;;;;5016042;28;20555;-80
2021/09/03 06:20:13;;;;;;;39.65;26.25;;;15.70;99.90;;;;;;5016321;28;20194;-81
2021/09/03 06:22:39;;;;;;;48.78;26.48;;;15.80;99.90;;;;;;5021752;28;20520;-81
2021/09/03 06:25:05;;;;;;;40.50;25.45;;;15.90;99.90;;;;;;5021770;28;20164;-81
2021/09/03 06:27:31;;;;;;;45.13;27.10;;;16.10;99.90;;;;;;5025134;28;20212;-80
2021/09/03 06:29:57;;;;;;;39.08;26.40;;;16.10;99.90;;;;;;5027191;28;20222;-82
2021/09/03 06:32:26;;;;;;;75.95;27.50;;;16.20;99.90;;;;;;5029831;28;20228;-82
2021/09/03 06:35:00;;;;;;;44.28;26.17;;;16.40;99.90;;;;;;5030586;28;20183;-82
2021/09/03 06:37:29;;;;;;;78.38;29.83;;;16.50;99.90;;;;;;5028471;28;20199;-81
2021/09/03 06:39:56;;;;;;;55.88;29.35;;;16.70;99.90;;;;;;5027622;28;20169;-77
2021/09/03 06:42:23;;;;;;;56.33;28.02;;;16.70;99.90;;;;;;5016404;28;20643;-80
2021/09/03 06:44:48;;;;;;;59.50;29.25;;;16.20;99.90;;;;;;5028293;28;20164;-82
2021/09/03 06:47:16;;;;;;;54.83;28.27;;;16.30;99.90;;;;;;5024771;28;20264;-82
2021/09/03 06:49:42;;;;;;;63.42;29.58;;;16.40;99.90;;;;;;5027902;28;20164;-85
2021/09/03 06:52:09;;;;;;;58.78;29.17;;;16.60;99.90;;;;;;5031562;28;20676;-77
2021/09/03 06:54:36;;;;;;;46.80;27.52;;;16.60;99.90;;;;;;5019668;28;20207;-78
2021/09/03 06:57:03;;;;;;;55.22;29.02;;;16.70;99.90;;;;;;5014968;28;20173;-85
2021/09/03 06:59:28;;;;;;;52.38;28.48;;;16.70;99.90;;;;;;5013918;28;20231;-84
2021/09/03 07:01:55;;;;;;;47.38;27.08;;;16.70;99.90;;;;;;5012877;28;20161;-85
2021/09/03 07:04:20;;;;;;;53.78;26.77;;;16.70;99.90;;;;;;5014059;28;20407;-83
2021/09/03 07:06:46;;;;;;;43.75;27.88;;;16.80;99.90;;;;;;5012923;28;20179;-86
2021/09/03 07:09:12;;;;;;;50.30;27.58;;;16.70;99.90;;;;;;5012838;28;20199;-85
2021/09/03 07:11:38;;;;;;;47.65;28.25;;;16.90;99.90;;;;;;5013460;28;20698;-86
2021/09/03 07:14:04;;;;;;;48.53;27.52;;;17.20;99.90;;;;;;5012896;28;20270;-85
2021/09/03 07:16:31;;;;;;;48.38;28.70;;;17.10;99.90;;;;;;5012597;28;20192;-84
2021/09/03 07:18:56;;;;;;;58.58;28.00;;;17.20;99.90;;;;;;5012646;28;20652;-86
2021/09/03 07:21:23;;;;;;;47.03;28.48;;;17.30;99.90;;;;;;5012458;28;20283;-86
2021/09/03 07:23:49;;;;;;;44.65;27.30;;;17.40;99.90;;;;;;5012525;28;20180;-85
2021/09/03 07:26:15;;;;;;;45.55;28.25;;;17.40;99.90;;;;;;5011707;28;20211;-85
2021/09/03 07:28:41;;;;;;;48.72;27.60;;;17.50;99.90;;;;;;5012351;28;20297;-84
2021/09/03 07:31:07;;;;;;;48.03;28.20;;;17.60;99.90;;;;;;5012204;28;20655;-83
2021/09/03 07:33:32;;;;;;;50.65;27.33;;;17.60;99.90;;;;;;5012022;28;20279;-82
2021/09/03 07:35:58;;;;;;;48.55;26.48;;;17.50;99.90;;;;;;5012013;28;20530;-84
2021/09/03 07:38:24;;;;;;;56.38;26.73;;;17.50;99.90;;;;;;5011474;28;20210;-83
2021/09/03 07:40:49;;;;;;;47.22;27.15;;;17.60;99.90;;;;;;5013076;28;20267;-83
2021/09/03 07:43:16;;;;;;;44.78;26.02;;;17.90;99.90;;;;;;5012003;28;20172;-84
2021/09/03 07:45:42;;;;;;;42.80;26.70;;;17.80;99.90;;;;;;5011367;28;20246;-84
2021/09/03 07:48:08;;;;;;;37.90;26.42;;;17.70;99.90;;;;;;5012135;28;20184;-85
2021/09/03 07:50:34;;;;;;;40.28;25.35;;;17.70;99.90;;;;;;5012216;28;20235;-86
2021/09/03 07:53:01;;;;;;;45.22;23.52;;;17.80;99.90;;;;;;5011626;28;20633;-85
2021/09/03 07:55:27;;;;;;;45.67;25.25;;;17.90;99.90;;;;;;5013437;28;20172;-85
2021/09/03 07:57:53;;;;;;;42.70;23.65;;;18.10;99.90;;;;;;5011159;28;20291;-85
2021/09/03 08:00:19;;;;;;;40.05;23.92;;;18.20;99.90;;;;;;5011871;28;20331;-84
2021/09/03 08:02:44;;;;;;;38.97;24.65;;;18.50;99.90;;;;;;5013043;28;20202;-85
2021/09/03 08:05:11;;;;;;;40.50;23.45;;;18.50;99.90;;;;;;5011921;28;20180;-85
2021/09/03 08:07:41;;;;;;;40.88;25.60;;;18.50;99.90;;;;;;5013356;28;20181;-89
2021/09/03 08:10:11;;;;;;;40.38;25.20;;;18.50;99.90;;;;;;5013161;28;20226;-85
2021/09/03 08:12:38;;;;;;;42.33;24.13;;;18.60;99.90;;;;;;5011493;28;20172;-85
2021/09/03 08:15:05;;;;;;;37.47;25.27;;;18.70;99.90;;;;;;5012238;28;20172;-83
2021/09/03 08:17:31;;;;;;;42.83;24.27;;;18.70;99.90;;;;;;5010991;28;20563;-85
2021/09/03 08:19:56;;;;;;;35.63;23.15;;;19.00;99.90;;;;;;5011693;28;20164;-86
2021/09/03 08:22:22;;;;;;;42.03;22.77;;;19.30;99.90;;;;;;5009796;28;20169;-86
2021/09/03 08:24:48;;;;;;;34.15;23.65;;;19.30;99.90;;;;;;5010660;28;20168;-87
2021/09/03 08:27:13;;;;;;;40.05;22.42;;;19.50;99.90;;;;;;5011576;28;20207;-84
2021/09/03 08:29:39;;;;;;;34.65;22.70;;;19.70;99.90;;;;;;5011369;28;20173;-85
2021/09/03 08:32:05;;;;;;;34.15;21.38;;;19.80;99.90;;;;;;5011938;28;20169;-88
2021/09/03 08:34:30;;;;;;;37.65;20.88;;;19.70;99.90;;;;;;5011088;28;20201;-85
2021/09/03 08:36:56;;;;;;;36.47;21.92;;;19.80;99.90;;;;;;5011391;28;20595;-86
2021/09/03 08:39:22;;;;;;;41.13;23.08;;;19.90;99.90;;;;;;5014456;28;20277;-82
2021/09/03 08:41:47;;;;;;;45.75;23.88;;;20.20;99.90;;;;;;5015754;28;20164;-82
2021/09/03 08:44:14;;;;;;;29.85;20.30;;;20.20;99.90;;;;;;5014807;28;20535;-81
2021/09/03 08:46:41;;;;;;;36.63;20.27;;;20.20;99.90;;;;;;5015133;28;20203;-82
2021/09/03 08:49:07;;;;;;;31.17;19.08;;;20.20;99.90;;;;;;5015359;28;20212;-81
2021/09/03 08:51:33;;;;;;;29.73;17.25;;;20.00;99.90;;;;;;5015346;28;20570;-81
2021/09/03 08:53:58;;;;;;;27.20;18.58;;;20.20;99.90;;;;;;5014724;28;20165;-83
2021/09/03 08:56:24;;;;;;;36.42;18.17;;;20.40;99.90;;;;;;5014116;28;20180;-83
2021/09/03 08:58:50;;;;;;;32.55;20.27;;;20.40;99.90;;;;;;5013963;28;20212;-82
2021/09/03 09:01:17;;;;;;;21.98;17.33;;;20.50;99.90;;;;;;5014278;28;20172;-82
2021/09/03 09:03:45;;;;;;;30.17;18.30;;;20.50;99.90;;;;;;5013982;28;20687;-83
2021/09/03 09:06:22;;;;;;;35.55;16.88;;;20.70;99.90;;;;;;5014063;28;20520;-82
2021/09/03 09:09:00;;;;;;;24.60;16.13;;;20.90;99.90;;;;;;5015204;28;20286;-83
2021/09/03 09:11:30;;;;;;;24.10;16.13;;;20.80;99.90;;;;;;5013967;28;20168;-81
2021/09/03 09:14:02;;;;;;;28.27;15.50;;;21.00;99.90;;;;;;5013839;28;20260;-82
2021/09/03 09:16:32;;;;;;;22.25;15.07;;;21.10;99.90;;;;;;5013885;28;20168;-82
2021/09/03 09:19:00;;;;;;;26.17;14.23;;;21.30;99.90;;;;;;5013858;28;20250;-83
2021/09/03 09:21:36;;;;;;;30.73;14.90;;;21.20;99.90;;;;;;5014745;28;20165;-80
2021/09/03 09:24:02;;;;;;;20.58;14.68;;;21.40;99.90;;;;;;5013291;28;20647;-81
2021/09/03 09:26:50;;;;;;;22.92;13.13;;;21.60;99.90;;;;;;5014688;28;20188;-81
2021/09/03 09:29:21;;;;;;;22.70;14.65;;;21.60;99.90;;;;;;5014280;28;20191;-81
2021/09/03 09:31:53;;;;;;;19.40;14.02;;;21.40;99.90;;;;;;5012824;28;20210;-81
2021/09/03 09:34:28;;;;;;;21.13;13.50;;;21.60;99.90;;;;;;5014899;28;20196;-81
2021/09/03 09:36:56;;;;;;;14.63;11.68;;;21.70;99.90;;;;;;5013167;28;20242;-79
2021/09/03 09:39:24;;;;;;;21.92;11.90;;;21.80;99.90;;;;;;5012581;28;20213;-82
2021/09/03 09:41:58;;;;;;;21.08;14.43;;;21.90;99.90;;;;;;5014323;28;20169;-82
2021/09/03 09:44:31;;;;;;;25.38;14.30;;;22.00;99.90;;;;;;5009711;28;20177;-81
2021/09/03 09:47:11;;;;;;;39.95;13.27;;;22.10;99.90;;;;;;5011962;28;20632;-80
2021/09/03 09:49:37;;;;;;;20.17;13.18;;;22.20;99.90;;;;;;5011034;28;20206;-81
2021/09/03 09:52:04;;;;;;;14.30;11.10;;;22.10;99.90;;;;;;5013028;28;20524;-81
2021/09/03 09:54:30;;;;;;;20.08;12.48;;;22.20;99.90;;;;;;5010881;28;20647;-81
2021/09/03 09:56:58;;;;;;;14.90;11.82;;;22.10;99.90;;;;;;5010937;28;20157;-81
2021/09/03 09:59:26;;;;;;;16.88;12.10;;;22.20;99.90;;;;;;5011806;28;20219;-82
2021/09/03 10:01:58;;;;;;;14.05;10.88;;;22.40;99.90;;;;;;5012521;28;20750;-81
2021/09/03 10:04:29;;;;;;;14.85;11.60;;;22.50;99.90;;;;;;5010448;28;20553;-81
2021/09/03 10:06:57;;;;;;;32.85;11.48;;;22.60;99.90;;;;;;5010388;28;20176;-81
2021/09/03 10:09:25;;;;;;;15.73;11.88;;;22.50;99.90;;;;;;5011575;28;20187;-81
2021/09/03 10:11:55;;;;;;;13.00;11.68;;;22.40;99.90;;;;;;5013284;28;20256;-82
2021/09/03 10:14:25;;;;;;;14.15;11.45;;;22.30;99.90;;;;;;5010738;28;20613;-81
2021/09/03 10:16:51;;;;;;;22.60;10.93;;;22.30;99.90;;;;;;5012077;28;20176;-82
2021/09/03 10:19:33;;;;;;;12.35;9.88;;;22.40;99.90;;;;;;5012076;28;20203;-79
2021/09/03 10:22:14;;;;;;;19.00;10.02;;;22.40;99.90;;;;;;5012551;28;20180;-80
2021/09/03 10:24:45;;;;;;;14.45;10.00;;;22.60;99.90;;;;;;5013142;28;20165;-80
2021/09/03 10:27:13;;;;;;;10.23;9.23;;;22.60;99.90;;;;;;5013301;28;20211;-81
2021/09/03 10:29:40;;;;;;;17.75;9.57;;;22.60;99.90;;;;;;5013608;28;20172;-80
2021/09/03 10:34:40;;;;;;;14.23;8.75;;;22.50;99.90;;;;;;5013615;28;20291;-80
2021/09/03 10:37:12;;;;;;;11.00;8.95;;;22.60;99.90;;;;;;5012923;28;20179;-81
2021/09/03 10:40:04;;;;;;;10.45;8.75;;;22.70;99.90;;;;;;5011706;28;20184;-81
2021/09/03 10:45:05;;;;;;;14.75;9.20;;;22.80;99.90;;;;;;5012346;28;20173;-81
2021/09/03 10:47:44;;;;;;;26.52;9.32;;;22.80;99.90;;;;;;5011461;28;20193;-81
2021/09/03 10:50:34;;;;;;;14.55;9.55;;;22.90;99.90;;;;;;5013327;28;20160;-80
2021/09/03 10:53:06;;;;;;;18.70;9.55;;;22.90;99.90;;;;;;5012416;28;20252;-81
2021/09/03 10:55:50;;;;;;;13.55;9.73;;;22.90;99.90;;;;;;5014069;28;20172;-88
2021/09/03 10:58:53;;;;;;;17.10;8.13;;;23.00;99.90;;;;;;5013355;28;20218;-85
2021/09/03 11:01:25;;;;;;;17.90;9.00;;;23.10;99.90;;;;;;5011059;28;20204;-84
2021/09/03 11:04:06;;;;;;;12.15;9.07;;;23.30;99.90;;;;;;5013679;28;20231;-85
2021/09/03 11:06:37;;;;;;;13.00;10.20;;;23.20;99.90;;;;;;5013051;28;20532;-84
2021/09/03 11:09:05;;;;;;;14.75;10.02;;;23.10;99.90;;;;;;5014013;28;20212;-87
2021/09/03 11:11:34;;;;;;;12.38;8.80;;;23.20;99.90;;;;;;5012144;28;20899;-84
2021/09/03 11:14:02;;;;;;;12.00;8.65;;;23.20;99.90;;;;;;5012497;28;20172;-84
2021/09/03 11:16:54;;;;;;;14.10;8.95;;;23.40;99.90;;;;;;5012583;28;20172;-85
2021/09/03 11:19:41;;;;;;;10.35;9.32;;;23.40;99.90;;;;;;5011964;28;20212;-84
2021/09/03 11:22:11;;;;;;;12.52;9.00;;;23.30;99.90;;;;;;5014482;28;20161;-84
2021/09/03 11:24:44;;;;;;;10.82;9.00;;;23.40;99.90;;;;;;5012892;28;20167;-80
2021/09/03 11:27:13;;;;;;;10.30;8.73;;;23.40;99.90;;;;;;5011362;28;20188;-79
2021/09/03 11:29:47;;;;;;;10.02;9.02;;;23.30;99.90;;;;;;5011795;28;20172;-79
2021/09/03 11:32:20;;;;;;;14.73;8.65;;;23.30;99.90;;;;;;5011735;28;20616;-79
2021/09/03 11:35:09;;;;;;;15.23;8.15;;;23.50;99.90;;;;;;5012238;28;20164;-78
2021/09/03 11:37:52;;;;;;;11.10;8.00;;;23.50;99.90;;;;;;5012012;28;20205;-78
2021/09/03 11:40:30;;;;;;;9.02;8.15;;;23.70;99.90;;;;;;5003323;28;20183;-78
2021/09/03 11:42:59;;;;;;;9.15;8.32;;;23.70;99.90;;;;;;5011940;28;20636;-78
2021/09/03 11:45:27;;;;;;;10.68;8.57;;;23.80;99.90;;;;;;5010832;28;20628;-78
2021/09/03 11:47:54;;;;;;;8.60;7.70;;;23.90;99.90;;;;;;5010050;28;20727;-86
2021/09/03 11:50:32;;;;;;;15.00;7.30;;;23.80;99.90;;;;;;5012606;28;20242;-83
2021/09/03 11:53:00;;;;;;;15.85;8.15;;;23.90;99.90;;;;;;5010604;28;20176;-80
2021/09/03 11:55:26;;;;;;;8.07;7.03;;;24.10;99.90;;;;;;5012366;28;20167;-79
2021/09/03 11:58:11;;;;;;;7.88;7.03;;;24.20;99.90;;;;;;5012258;28;20208;-79
2021/09/03 12:00:43;;;;;;;8.43;7.63;;;24.10;99.90;;;;;;5012729;28;20227;-83
2021/09/03 12:03:11;;;;;;;11.50;7.72;;;24.10;99.90;;;;;;5012446;28;20184;-81
2021/09/03 12:05:38;;;;;;;7.68;6.97;;;23.90;99.90;;;;;;5013063;28;20171;-79
2021/09/03 12:08:07;;;;;;;8.27;7.45;;;24.00;99.90;;;;;;5012443;28;20184;-83
2021/09/03 12:10:36;;;;;;;7.88;7.05;;;24.10;99.90;;;;;;5012785;28;20179;-78
2021/09/03 12:13:20;;;;;;;14.05;7.78;;;24.20;99.90;;;;;;5013266;28;20226;-79
2021/09/03 12:15:54;;;;;;;11.90;7.68;;;24.30;99.90;;;;;;5016337;28;20176;-80
2021/09/03 12:18:29;;;;;;;14.45;8.18;;;24.30;99.90;;;;;;5016135;28;20210;-79
2021/09/03 12:21:05;;;;;;;12.07;8.32;;;24.30;99.90;;;;;;5016208;28;20511;-86
2021/09/03 12:23:46;;;;;;;10.70;7.28;;;24.20;99.90;;;;;;5015823;28;20164;-78
2021/09/03 12:26:15;;;;;;;9.93;7.25;;;24.30;99.90;;;;;;5015308;28;20628;-79
2021/09/03 12:28:46;;;;;;;7.55;6.93;;;24.30;99.90;;;;;;5016114;28;20255;-79
2021/09/03 12:31:16;;;;;;;10.20;6.85;;;24.30;99.90;;;;;;5016060;28;20206;-78
2021/09/03 12:33:53;;;;;;;7.85;7.05;;;24.30;99.90;;;;;;5016576;28;20575;-83
2021/09/03 12:36:24;;;;;;;8.98;7.20;;;24.40;99.90;;;;;;5016495;28;20581;-82